sensor_id;sensor_type;location;lat;lon;timestamp;pressure;altitude;pressure_sealevel;temperature
28305;BMP280;15569;42.652;23.040;2023-07-08T00:00:45;93368.09;;;22.99
28305;BMP280;15569;42.652;23.040;2023-07-08T00:03:13;93365.34;;;23.01
28305;BMP280;15569;42.652;23.040;2023-07-08T00:05:39;93352.84;;;22.98
28305;BMP280;15569;42.652;23.040;2023-07-08T00:08:04;93359.75;;;22.93
28305;BMP280;15569;42.652;23.040;2023-07-08T00:10:30;93354.84;;;22.87
28305;BMP280;15569;42.652;23.040;2023-07-08T00:12:57;93358.28;;;22.88
28305;BMP280;15569;42.652;23.040;2023-07-08T00:15:30;93356.91;;;22.83
28305;BMP280;15569;42.652;23.040;2023-07-08T00:17:58;93353.47;;;22.86
28305;BMP280;15569;42.652;23.040;2023-07-08T00:20:41;93352.66;;;22.74
28305;BMP280;15569;42.652;23.040;2023-07-08T00:23:09;93345.06;;;22.74
28305;BMP280;15569;42.652;23.040;2023-07-08T00:25:35;93340.13;;;22.67
28305;BMP280;15569;42.652;23.040;2023-07-08T00:28:00;93341.53;;;22.68
28305;BMP280;15569;42.652;23.040;2023-07-08T00:30:28;93345.03;;;22.68
28305;BMP280;15569;42.652;23.040;2023-07-08T00:32:54;93331.88;;;22.69
28305;BMP280;15569;42.652;23.040;2023-07-08T00:35:35;93334.63;;;22.71
28305;BMP280;15569;42.652;23.040;2023-07-08T00:38:04;93338.09;;;22.69
28305;BMP280;15569;42.652;23.040;2023-07-08T00:40:38;93324.19;;;22.65
28305;BMP280;15569;42.652;23.040;2023-07-08T00:43:13;93318.66;;;22.65
28305;BMP280;15569;42.652;23.040;2023-07-08T00:45:41;93326.28;;;22.65
28305;BMP280;15569;42.652;23.040;2023-07-08T00:48:19;93337.38;;;22.65
28305;BMP280;15569;42.652;23.040;2023-07-08T00:50:47;93331.84;;;22.65
28305;BMP280;15569;42.652;23.040;2023-07-08T00:53:33;93330.38;;;22.56
28305;BMP280;15569;42.652;23.040;2023-07-08T00:56:02;93324.13;;;22.53
28305;BMP280;15569;42.652;23.040;2023-07-08T00:58:39;93328.94;;;22.55
28305;BMP280;15569;42.652;23.040;2023-07-08T01:01:07;93331.72;;;22.51
28305;BMP280;15569;42.652;23.040;2023-07-08T01:03:37;93330.97;;;22.46
28305;BMP280;15569;42.652;23.040;2023-07-08T01:06:04;93316.38;;;22.40
28305;BMP280;15569;42.652;23.040;2023-07-08T01:08:31;93312.19;;;22.35
28305;BMP280;15569;42.652;23.040;2023-07-08T01:11:02;93321.88;;;22.34
28305;BMP280;15569;42.652;23.040;2023-07-08T01:13:39;93315.59;;;22.29
28305;BMP280;15569;42.652;23.040;2023-07-08T01:16:06;93325.97;;;22.29
28305;BMP280;15569;42.652;23.040;2023-07-08T01:18:32;93305.81;;;22.20
28305;BMP280;15569;42.652;23.040;2023-07-08T01:21:04;93312.00;;;22.17
28305;BMP280;15569;42.652;23.040;2023-07-08T01:23:33;93321.47;;;21.94
28305;BMP280;15569;42.652;23.040;2023-07-08T01:25:59;93322.06;;;21.80
28305;BMP280;15569;42.652;23.040;2023-07-08T01:28:27;93311.59;;;21.75
28305;BMP280;15569;42.652;23.040;2023-07-08T01:30:53;93308.81;;;21.73
28305;BMP280;15569;42.652;23.040;2023-07-08T01:33:20;93307.53;;;21.84
28305;BMP280;15569;42.652;23.040;2023-07-08T01:35:47;93310.41;;;21.92
28305;BMP280;15569;42.652;23.040;2023-07-08T01:38:17;93297.31;;;21.96
28305;BMP280;15569;42.652;23.040;2023-07-08T01:40:57;93299.38;;;21.98
28305;BMP280;15569;42.652;23.040;2023-07-08T01:43:22;93297.34;;;22.00
28305;BMP280;15569;42.652;23.040;2023-07-08T01:45:49;93293.88;;;22.02
28305;BMP280;15569;42.652;23.040;2023-07-08T01:48:21;93290.41;;;21.97
28305;BMP280;15569;42.652;23.040;2023-07-08T01:50:54;93313.31;;;22.04
28305;BMP280;15569;42.652;23.040;2023-07-08T01:53:30;93309.81;;;22.05
28305;BMP280;15569;42.652;23.040;2023-07-08T01:55:56;93311.91;;;22.03
28305;BMP280;15569;42.652;23.040;2023-07-08T01:58:21;93314.66;;;22.01
28305;BMP280;15569;42.652;23.040;2023-07-08T02:00:47;93317.47;;;22.05
28305;BMP280;15569;42.652;23.040;2023-07-08T02:03:15;93303.59;;;22.03
28305;BMP280;15569;42.652;23.040;2023-07-08T02:05:40;93302.09;;;21.92
28305;BMP280;15569;42.652;23.040;2023-07-08T02:08:05;93300.78;;;21.99
28305;BMP280;15569;42.652;23.040;2023-07-08T02:20:09;93295.94;;;21.97
28305;BMP280;15569;42.652;23.040;2023-07-08T02:22:34;93307.00;;;21.95
28305;BMP280;15569;42.652;23.040;2023-07-08T02:25:02;93313.19;;;21.96
28305;BMP280;15569;42.652;23.040;2023-07-08T02:27:27;93310.47;;;21.98
28305;BMP280;15569;42.652;23.040;2023-07-08T02:29:52;93308.41;;;21.98
28305;BMP280;15569;42.652;23.040;2023-07-08T02:32:18;93309.75;;;21.95
28305;BMP280;15569;42.652;23.040;2023-07-08T02:34:44;93310.38;;;21.90
28305;BMP280;15569;42.652;23.040;2023-07-08T02:37:09;93325.69;;;21.99
28305;BMP280;15569;42.652;23.040;2023-07-08T02:39:34;93321.50;;;21.96
28305;BMP280;15569;42.652;23.040;2023-07-08T02:42:00;93318.63;;;21.84
28305;BMP280;15569;42.652;23.040;2023-07-08T02:44:26;93322.19;;;21.94
28305;BMP280;15569;42.652;23.040;2023-07-08T02:46:51;93312.53;;;21.95
28305;BMP280;15569;42.652;23.040;2023-07-08T02:49:17;93309.72;;;21.89
28305;BMP280;15569;42.652;23.040;2023-07-08T02:51:42;93313.84;;;21.90
28305;BMP280;15569;42.652;23.040;2023-07-08T02:54:07;93311.72;;;21.85
28305;BMP280;15569;42.652;23.040;2023-07-08T02:56:33;93325.56;;;21.85
28305;BMP280;15569;42.652;23.040;2023-07-08T02:58:58;93322.13;;;21.86
28305;BMP280;15569;42.652;23.040;2023-07-08T03:01:24;93324.19;;;21.86
28305;BMP280;15569;42.652;23.040;2023-07-08T03:03:51;93319.94;;;21.77
28305;BMP280;15569;42.652;23.040;2023-07-08T03:06:19;93327.59;;;21.80
28305;BMP280;15569;42.652;23.040;2023-07-08T03:08:44;93338.63;;;21.78
28305;BMP280;15569;42.652;23.040;2023-07-08T03:11:10;93336.53;;;21.77
28305;BMP280;15569;42.652;23.040;2023-07-08T03:13:35;93329.66;;;21.80
28305;BMP280;15569;42.652;23.040;2023-07-08T03:16:03;93328.09;;;21.65
28305;BMP280;15569;42.652;23.040;2023-07-08T03:18:37;93328.16;;;21.71
28305;BMP280;15569;42.652;23.040;2023-07-08T03:21:04;93329.59;;;21.74
28305;BMP280;15569;42.652;23.040;2023-07-08T03:23:29;93314.31;;;21.69
28305;BMP280;15569;42.652;23.040;2023-07-08T03:25:54;93325.34;;;21.65
28305;BMP280;15569;42.652;23.040;2023-07-08T03:28:20;93318.53;;;21.74
28305;BMP280;15569;42.652;23.040;2023-07-08T03:30:51;93312.34;;;21.77
28305;BMP280;15569;42.652;23.040;2023-07-08T03:33:17;93315.75;;;21.76
28305;BMP280;15569;42.652;23.040;2023-07-08T03:35:42;93302.56;;;21.70
28305;BMP280;15569;42.652;23.040;2023-07-08T03:38:07;93312.41;;;21.83
28305;BMP280;15569;42.652;23.040;2023-07-08T03:40:33;93311.03;;;21.86
28305;BMP280;15569;42.652;23.040;2023-07-08T03:42:58;93309.72;;;21.91
28305;BMP280;15569;42.652;23.040;2023-07-08T03:45:25;93307.66;;;21.94
28305;BMP280;15569;42.652;23.040;2023-07-08T03:47:51;93308.38;;;21.96
28305;BMP280;15569;42.652;23.040;2023-07-08T03:50:22;93311.25;;;22.04
28305;BMP280;15569;42.652;23.040;2023-07-08T03:52:49;93307.13;;;22.11
28305;BMP280;15569;42.652;23.040;2023-07-08T03:55:16;93311.94;;;22.07
28305;BMP280;15569;42.652;23.040;2023-07-08T03:57:41;93314.72;;;22.09
28305;BMP280;15569;42.652;23.040;2023-07-08T04:00:07;93322.34;;;22.08
28305;BMP280;15569;42.652;23.040;2023-07-08T04:02:35;93318.97;;;22.16
28305;BMP280;15569;42.652;23.040;2023-07-08T04:05:01;93325.09;;;22.04
28305;BMP280;15569;42.652;23.040;2023-07-08T04:07:27;93317.38;;;21.99
28305;BMP280;15569;42.652;23.040;2023-07-08T04:09:52;93318.84;;;22.04
28305;BMP280;15569;42.652;23.040;2023-07-08T04:12:18;93316.81;;;22.10
28305;BMP280;15569;42.652;23.040;2023-07-08T04:14:43;93327.28;;;22.20
28305;BMP280;15569;42.652;23.040;2023-07-08T04:17:09;93324.56;;;22.24
28305;BMP280;15569;42.652;23.040;2023-07-08T04:19:35;93328.81;;;22.35
28305;BMP280;15569;42.652;23.040;2023-07-08T04:22:02;93323.31;;;22.39
28305;BMP280;15569;42.652;23.040;2023-07-08T04:24:27;93335.19;;;22.53
28305;BMP280;15569;42.652;23.040;2023-07-08T04:26:53;93338.00;;;22.59
28305;BMP280;15569;42.652;23.040;2023-07-08T04:29:20;93329.09;;;22.69
28305;BMP280;15569;42.652;23.040;2023-07-08T04:31:46;93318.69;;;22.73
28305;BMP280;15569;42.652;23.040;2023-07-08T04:34:13;93325.59;;;22.64
28305;BMP280;15569;42.652;23.040;2023-07-08T04:36:39;93325.47;;;22.48
28305;BMP280;15569;42.652;23.040;2023-07-08T04:39:05;93326.25;;;22.63
28305;BMP280;15569;42.652;23.040;2023-07-08T04:41:31;93334.63;;;22.71
28305;BMP280;15569;42.652;23.040;2023-07-08T04:43:57;93329.88;;;22.83
28305;BMP280;15569;42.652;23.040;2023-07-08T04:46:49;93331.88;;;22.71
28305;BMP280;15569;42.652;23.040;2023-07-08T04:49:16;93340.94;;;22.81
28305;BMP280;15569;42.652;23.040;2023-07-08T04:51:42;93328.47;;;22.80
28305;BMP280;15569;42.652;23.040;2023-07-08T04:54:08;93344.47;;;22.92
28305;BMP280;15569;42.652;23.040;2023-07-08T04:56:42;93352.09;;;22.91
28305;BMP280;15569;42.652;23.040;2023-07-08T04:59:09;93336.19;;;23.00
28305;BMP280;15569;42.652;23.040;2023-07-08T05:01:36;93351.47;;;22.99
28305;BMP280;15569;42.652;23.040;2023-07-08T05:04:02;93348.03;;;23.09
28305;BMP280;15569;42.652;23.040;2023-07-08T05:06:30;93352.25;;;23.16
28305;BMP280;15569;42.652;23.040;2023-07-08T05:08:55;93356.59;;;22.43
28305;BMP280;15569;42.652;23.040;2023-07-08T05:11:21;93347.63;;;22.48
28305;BMP280;15569;42.652;23.040;2023-07-08T05:13:46;93358.56;;;22.32
28305;BMP280;15569;42.652;23.040;2023-07-08T05:16:11;93356.38;;;22.21
28305;BMP280;15569;42.652;23.040;2023-07-08T05:18:37;93361.16;;;22.12
28305;BMP280;15569;42.652;23.040;2023-07-08T05:21:02;93359.84;;;21.57
28305;BMP280;15569;42.652;23.040;2023-07-08T05:23:28;93359.81;;;21.53
28305;BMP280;15569;42.652;23.040;2023-07-08T05:25:53;93350.78;;;22.15
28305;BMP280;15569;42.652;23.040;2023-07-08T05:28:19;93347.56;;;21.75
28305;BMP280;15569;42.652;23.040;2023-07-08T05:30:46;93347.22;;;21.44
28305;BMP280;15569;42.652;23.040;2023-07-08T05:33:12;93353.28;;;21.89
28305;BMP280;15569;42.652;23.040;2023-07-08T05:35:37;93354.88;;;22.10
28305;BMP280;15569;42.652;23.040;2023-07-08T05:38:02;93361.97;;;22.25
28305;BMP280;15569;42.652;23.040;2023-07-08T05:40:28;93367.56;;;22.33
28305;BMP280;15569;42.652;23.040;2023-07-08T05:42:53;93372.75;;;21.99
28305;BMP280;15569;42.652;23.040;2023-07-08T05:45:19;93371.44;;;22.06
28305;BMP280;15569;42.652;23.040;2023-07-08T05:47:44;93367.78;;;22.57
28305;BMP280;15569;42.652;23.040;2023-07-08T05:50:09;93369.41;;;22.86
28305;BMP280;15569;42.652;23.040;2023-07-08T05:52:35;93378.22;;;22.62
28305;BMP280;15569;42.652;23.040;2023-07-08T05:55:00;93374.78;;;22.66
28305;BMP280;15569;42.652;23.040;2023-07-08T05:57:26;93385.13;;;22.59
28305;BMP280;15569;42.652;23.040;2023-07-08T05:59:51;93386.53;;;22.60
28305;BMP280;15569;42.652;23.040;2023-07-08T06:02:18;93386.03;;;22.88
28305;BMP280;15569;42.652;23.040;2023-07-08T06:04:47;93390.91;;;22.91
28305;BMP280;15569;42.652;23.040;2023-07-08T06:07:12;93380.69;;;23.18
28305;BMP280;15569;42.652;23.040;2023-07-08T06:09:37;93396.47;;;22.89
28305;BMP280;15569;42.652;23.040;2023-07-08T06:12:03;93403.88;;;22.63
28305;BMP280;15569;42.652;23.040;2023-07-08T06:14:28;93405.34;;;22.76
28305;BMP280;15569;42.652;23.040;2023-07-08T06:16:54;93415.31;;;22.27
28305;BMP280;15569;42.652;23.040;2023-07-08T06:19:20;93409.94;;;22.47
28305;BMP280;15569;42.652;23.040;2023-07-08T06:21:46;93402.44;;;22.58
28305;BMP280;15569;42.652;23.040;2023-07-08T06:24:11;93399.53;;;22.46
28305;BMP280;15569;42.652;23.040;2023-07-08T06:26:36;93406.47;;;22.45
28305;BMP280;15569;42.652;23.040;2023-07-08T06:29:03;93403.13;;;22.56
28305;BMP280;15569;42.652;23.040;2023-07-08T06:31:28;93398.22;;;22.53
28305;BMP280;15569;42.652;23.040;2023-07-08T06:33:54;93392.69;;;22.53
28305;BMP280;15569;42.652;23.040;2023-07-08T06:36:19;93383.31;;;22.16
28305;BMP280;15569;42.652;23.040;2023-07-08T06:38:44;93392.53;;;22.37
28305;BMP280;15569;42.652;23.040;2023-07-08T06:41:10;93403.63;;;22.37
28305;BMP280;15569;42.652;23.040;2023-07-08T06:43:35;93411.41;;;22.54
28305;BMP280;15569;42.652;23.040;2023-07-08T06:46:01;93399.88;;;22.86
28305;BMP280;15569;42.652;23.040;2023-07-08T06:48:26;93394.44;;;23.00
28305;BMP280;15569;42.652;23.040;2023-07-08T06:50:51;93413.59;;;22.66
28305;BMP280;15569;42.652;23.040;2023-07-08T06:53:17;93408.22;;;22.86
28305;BMP280;15569;42.652;23.040;2023-07-08T06:55:46;93413.06;;;22.87
28305;BMP280;15569;42.652;23.040;2023-07-08T06:58:12;93410.97;;;22.86
28305;BMP280;15569;42.652;23.040;2023-07-08T07:00:40;93402.00;;;22.89
28305;BMP280;15569;42.652;23.040;2023-07-08T07:03:06;93397.19;;;22.96
28305;BMP280;15569;42.652;23.040;2023-07-08T07:05:31;93399.22;;;22.87
28305;BMP280;15569;42.652;23.040;2023-07-08T07:07:57;93411.59;;;22.74
28305;BMP280;15569;42.652;23.040;2023-07-08T07:10:23;93417.81;;;22.75
28305;BMP280;15569;42.652;23.040;2023-07-08T07:12:49;93406.75;;;22.79
28305;BMP280;15569;42.652;23.040;2023-07-08T07:15:14;93397.94;;;23.05
28305;BMP280;15569;42.652;23.040;2023-07-08T07:17:40;93395.81;;;22.99
28305;BMP280;15569;42.652;23.040;2023-07-08T07:20:06;93413.19;;;23.04
28305;BMP280;15569;42.652;23.040;2023-07-08T07:22:31;93425.06;;;23.14
28305;BMP280;15569;42.652;23.040;2023-07-08T07:24:57;93419.50;;;23.14
28305;BMP280;15569;42.652;23.040;2023-07-08T07:27:22;93438.94;;;23.20
28305;BMP280;15569;42.652;23.040;2023-07-08T07:29:49;93439.31;;;22.76
28305;BMP280;15569;42.652;23.040;2023-07-08T07:32:16;93420.50;;;22.65
28305;BMP280;15569;42.652;23.040;2023-07-08T07:34:42;93435.47;;;23.18
28305;BMP280;15569;42.652;23.040;2023-07-08T07:37:13;93433.38;;;23.18
28305;BMP280;15569;42.652;23.040;2023-07-08T07:39:39;93425.78;;;23.21
28305;BMP280;15569;42.652;23.040;2023-07-08T07:42:05;93434.22;;;23.35
28305;BMP280;15569;42.652;23.040;2023-07-08T07:44:30;93432.00;;;23.13
28305;BMP280;15569;42.652;23.040;2023-07-08T07:46:56;93425.06;;;23.14
28305;BMP280;15569;42.652;23.040;2023-07-08T07:49:21;93425.06;;;23.16
28305;BMP280;15569;42.652;23.040;2023-07-08T07:51:47;93428.00;;;23.40
28305;BMP280;15569;42.652;23.040;2023-07-08T07:54:14;93431.25;;;23.09
28305;BMP280;15569;42.652;23.040;2023-07-08T07:56:39;93423.75;;;23.29
28305;BMP280;15569;42.652;23.040;2023-07-08T07:59:04;93435.59;;;23.34
28305;BMP280;15569;42.652;23.040;2023-07-08T08:01:30;93441.88;;;23.40
28305;BMP280;15569;42.652;23.040;2023-07-08T08:03:55;93441.09;;;23.26
28305;BMP280;15569;42.652;23.040;2023-07-08T08:06:21;93429.34;;;23.39
28305;BMP280;15569;42.652;23.040;2023-07-08T08:08:46;93423.84;;;23.47
28305;BMP280;15569;42.652;23.040;2023-07-08T08:11:13;93442.59;;;23.47
28305;BMP280;15569;42.652;23.040;2023-07-08T08:13:38;93424.75;;;23.88
28305;BMP280;15569;42.652;23.040;2023-07-08T08:16:04;93430.31;;;23.90
28305;BMP280;15569;42.652;23.040;2023-07-08T08:18:30;93428.19;;;23.76
28305;BMP280;15569;42.652;23.040;2023-07-08T08:20:55;93428.97;;;24.05
28305;BMP280;15569;42.652;23.040;2023-07-08T08:23:21;93425.41;;;23.76
28305;BMP280;15569;42.652;23.040;2023-07-08T08:25:46;93433.78;;;23.94
28305;BMP280;15569;42.652;23.040;2023-07-08T08:28:12;93426.94;;;24.19
28305;BMP280;15569;42.652;23.040;2023-07-08T08:30:37;93423.41;;;24.01
28305;BMP280;15569;42.652;23.040;2023-07-08T08:33:03;93424.13;;;24.15
28305;BMP280;15569;42.652;23.040;2023-07-08T08:35:28;93410.34;;;24.62
28305;BMP280;15569;42.652;23.040;2023-07-08T08:37:54;93413.81;;;24.78
28305;BMP280;15569;42.652;23.040;2023-07-08T08:40:20;93416.38;;;23.80
28305;BMP280;15569;42.652;23.040;2023-07-08T08:43:06;93414.84;;;23.45
28305;BMP280;15569;42.652;23.040;2023-07-08T08:45:48;93426.09;;;23.73
28305;BMP280;15569;42.652;23.040;2023-07-08T08:48:15;93421.34;;;23.99
28305;BMP280;15569;42.652;23.040;2023-07-08T08:53:12;93424.13;;;24.15
28305;BMP280;15569;42.652;23.040;2023-07-08T08:55:38;93433.13;;;23.98
28305;BMP280;15569;42.652;23.040;2023-07-08T09:00:44;93420.00;;;24.30
28305;BMP280;15569;42.652;23.040;2023-07-08T09:03:17;93417.97;;;24.61
28305;BMP280;15569;42.652;23.040;2023-07-08T09:05:45;93418.63;;;25.28
28305;BMP280;15569;42.652;23.040;2023-07-08T09:08:26;93413.78;;;24.84
28305;BMP280;15569;42.652;23.040;2023-07-08T09:11:00;93421.44;;;24.52
28305;BMP280;15569;42.652;23.040;2023-07-08T09:13:33;93425.59;;;24.61
28305;BMP280;15569;42.652;23.040;2023-07-08T09:16:06;93426.94;;;25.42
28305;BMP280;15569;42.652;23.040;2023-07-08T09:18:58;93411.00;;;25.20
28305;BMP280;15569;42.652;23.040;2023-07-08T09:21:33;93415.84;;;25.26
28305;BMP280;15569;42.652;23.040;2023-07-08T09:24:07;93407.53;;;25.10
28305;BMP280;15569;42.652;23.040;2023-07-08T09:26:33;93419.31;;;25.26
28305;BMP280;15569;42.652;23.040;2023-07-08T09:28:59;93413.78;;;25.04
28305;BMP280;15569;42.652;23.040;2023-07-08T09:31:27;93404.69;;;25.42
28305;BMP280;15569;42.652;23.040;2023-07-08T09:34:04;93403.25;;;25.51
28305;BMP280;15569;42.652;23.040;2023-07-08T09:36:30;93395.63;;;25.43
28305;BMP280;15569;42.652;23.040;2023-07-08T09:38:55;93408.13;;;25.48
28305;BMP280;15569;42.652;23.040;2023-07-08T09:41:33;93413.78;;;24.94
28305;BMP280;15569;42.652;23.040;2023-07-08T09:46:36;93406.84;;;24.97
28305;BMP280;15569;42.652;23.040;2023-07-08T09:49:27;93396.41;;;24.96
28305;BMP280;15569;42.652;23.040;2023-07-08T09:51:53;93398.47;;;25.05
28305;BMP280;15569;42.652;23.040;2023-07-08T09:54:21;93411.00;;;25.02
28305;BMP280;15569;42.652;23.040;2023-07-08T09:57:18;93411.00;;;24.94
28305;BMP280;15569;42.652;23.040;2023-07-08T09:59:47;93403.34;;;25.17
28305;BMP280;15569;42.652;23.040;2023-07-08T10:02:41;93401.94;;;25.08
28305;BMP280;15569;42.652;23.040;2023-07-08T10:07:38;93388.06;;;24.38
28305;BMP280;15569;42.652;23.040;2023-07-08T10:10:07;93397.81;;;24.65
28305;BMP280;15569;42.652;23.040;2023-07-08T10:12:37;93387.38;;;24.97
28305;BMP280;15569;42.652;23.040;2023-07-08T10:15:18;93383.91;;;24.73
28305;BMP280;15569;42.652;23.040;2023-07-08T10:17:45;93385.97;;;24.36
28305;BMP280;15569;42.652;23.040;2023-07-08T10:20:12;93406.13;;;24.26
28305;BMP280;15569;42.652;23.040;2023-07-08T10:22:56;93378.38;;;24.51
28305;BMP280;15569;42.652;23.040;2023-07-08T10:25:49;93388.09;;;24.62
28305;BMP280;15569;42.652;23.040;2023-07-08T10:31:07;93363.06;;;24.72
28305;BMP280;15569;42.652;23.040;2023-07-08T10:33:46;93373.44;;;25.11
28305;BMP280;15569;42.652;23.040;2023-07-08T10:48:09;93368.63;;;24.80
28305;BMP280;15569;42.652;23.040;2023-07-08T10:51:02;93367.16;;;25.21
28305;BMP280;15569;42.652;23.040;2023-07-08T10:56:16;93351.88;;;25.08
28305;BMP280;15569;42.652;23.040;2023-07-08T11:09:08;93361.63;;;25.13
28305;BMP280;15569;42.652;23.040;2023-07-08T11:11:51;93351.91;;;24.96
28305;BMP280;15569;42.652;23.040;2023-07-08T11:14:30;93352.63;;;24.40
28305;BMP280;15569;42.652;23.040;2023-07-08T11:17:15;93351.22;;;24.81
28305;BMP280;15569;42.652;23.040;2023-07-08T11:22:22;93343.53;;;25.02
28305;BMP280;15569;42.652;23.040;2023-07-08T11:24:49;93355.28;;;25.34
28305;BMP280;15569;42.652;23.040;2023-07-08T11:32:34;93353.78;;;25.69
28305;BMP280;15569;42.652;23.040;2023-07-08T11:35:02;93343.97;;;25.70
28305;BMP280;15569;42.652;23.040;2023-07-08T11:37:29;93339.47;;;26.26
28305;BMP280;15569;42.652;23.040;2023-07-08T11:40:07;93352.59;;;26.39
28305;BMP280;15569;42.652;23.040;2023-07-08T11:42:41;93339.66;;;26.00
28305;BMP280;15569;42.652;23.040;2023-07-08T11:45:31;93348.81;;;25.82
28305;BMP280;15569;42.652;23.040;2023-07-08T11:48:16;93345.00;;;26.34
28305;BMP280;15569;42.652;23.040;2023-07-08T11:50:45;93344.56;;;25.91
28305;BMP280;15569;42.652;23.040;2023-07-08T11:53:48;93345.59;;;26.46
28305;BMP280;15569;42.652;23.040;2023-07-08T11:58:52;93336.94;;;25.85
28305;BMP280;15569;42.652;23.040;2023-07-08T12:01:32;93329.22;;;25.98
28305;BMP280;15569;42.652;23.040;2023-07-08T12:09:22;93343.88;;;26.81
28305;BMP280;15569;42.652;23.040;2023-07-08T12:11:54;93341.25;;;27.30
28305;BMP280;15569;42.652;23.040;2023-07-08T12:14:20;93337.78;;;27.27
28305;BMP280;15569;42.652;23.040;2023-07-08T12:16:45;93328.00;;;27.85
28305;BMP280;15569;42.652;23.040;2023-07-08T12:19:16;93328.75;;;27.80
28305;BMP280;15569;42.652;23.040;2023-07-08T12:21:43;93325.44;;;27.67
28305;BMP280;15569;42.652;23.040;2023-07-08T12:24:11;93317.47;;;27.33
28305;BMP280;15569;42.652;23.040;2023-07-08T12:26:37;93330.03;;;27.87
28305;BMP280;15569;42.652;23.040;2023-07-08T12:29:03;93323.13;;;28.30
28305;BMP280;15569;42.652;23.040;2023-07-08T12:31:29;93325.25;;;28.26
28305;BMP280;15569;42.652;23.040;2023-07-08T12:33:58;93314.50;;;28.42
28305;BMP280;15569;42.652;23.040;2023-07-08T12:36:28;93316.53;;;28.48
28305;BMP280;15569;42.652;23.040;2023-07-08T12:38:58;93329.94;;;28.80
28305;BMP280;15569;42.652;23.040;2023-07-08T12:41:29;93328.06;;;28.68
28305;BMP280;15569;42.652;23.040;2023-07-08T12:43:55;93329.00;;;28.53
28305;BMP280;15569;42.652;23.040;2023-07-08T12:46:22;93319.72;;;28.24
28305;BMP280;15569;42.652;23.040;2023-07-08T12:48:48;93337.41;;;28.53
28305;BMP280;15569;42.652;23.040;2023-07-08T12:51:18;93331.44;;;28.75
28305;BMP280;15569;42.652;23.040;2023-07-08T12:53:49;93340.75;;;29.00
28305;BMP280;15569;42.652;23.040;2023-07-08T12:56:15;93337.53;;;29.22
28305;BMP280;15569;42.652;23.040;2023-07-08T12:58:43;93335.66;;;28.31
28305;BMP280;15569;42.652;23.040;2023-07-08T13:01:17;93337.81;;;28.71
28305;BMP280;15569;42.652;23.040;2023-07-08T13:03:45;93336.31;;;29.13
28305;BMP280;15569;42.652;23.040;2023-07-08T13:06:16;93324.03;;;28.96
28305;BMP280;15569;42.652;23.040;2023-07-08T13:08:41;93334.25;;;29.46
28305;BMP280;15569;42.652;23.040;2023-07-08T13:11:07;93329.41;;;29.75
28305;BMP280;15569;42.652;23.040;2023-07-08T13:13:36;93316.84;;;29.41
28305;BMP280;15569;42.652;23.040;2023-07-08T13:16:03;93335.22;;;29.32
28305;BMP280;15569;42.652;23.040;2023-07-08T13:18:35;93324.28;;;29.53
28305;BMP280;15569;42.652;23.040;2023-07-08T13:21:03;93315.84;;;29.86
28305;BMP280;15569;42.652;23.040;2023-07-08T13:23:29;93323.00;;;30.09
28305;BMP280;15569;42.652;23.040;2023-07-08T13:25:55;93332.31;;;30.30
28305;BMP280;15569;42.652;23.040;2023-07-08T13:28:29;93321.09;;;30.32
28305;BMP280;15569;42.652;23.040;2023-07-08T13:31:03;93333.84;;;30.25
28305;BMP280;15569;42.652;23.040;2023-07-08T13:33:37;93333.47;;;30.41
28305;BMP280;15569;42.652;23.040;2023-07-08T13:36:05;93328.22;;;30.80
28305;BMP280;15569;42.652;23.040;2023-07-08T13:38:35;93333.78;;;30.82
28305;BMP280;15569;42.652;23.040;2023-07-08T13:41:06;93316.28;;;30.27
28305;BMP280;15569;42.652;23.040;2023-07-08T13:43:35;93314.72;;;30.34
28305;BMP280;15569;42.652;23.040;2023-07-08T13:46:01;93320.81;;;30.42
28305;BMP280;15569;42.652;23.040;2023-07-08T13:48:42;93327.88;;;30.39
28305;BMP280;15569;42.652;23.040;2023-07-08T13:51:22;93305.66;;;30.31
28305;BMP280;15569;42.652;23.040;2023-07-08T13:53:53;93315.63;;;30.53
28305;BMP280;15569;42.652;23.040;2023-07-08T13:56:28;93323.53;;;30.46
28305;BMP280;15569;42.652;23.040;2023-07-08T13:59:05;93320.56;;;30.52
28305;BMP280;15569;42.652;23.040;2023-07-08T14:01:32;93323.69;;;30.67
28305;BMP280;15569;42.652;23.040;2023-07-08T14:03:58;93320.66;;;30.75
28305;BMP280;15569;42.652;23.040;2023-07-08T14:06:31;93322.53;;;30.84
28305;BMP280;15569;42.652;23.040;2023-07-08T14:09:10;93318.78;;;30.67
28305;BMP280;15569;42.652;23.040;2023-07-08T14:11:36;93328.19;;;31.07
28305;BMP280;15569;42.652;23.040;2023-07-08T14:14:01;93310.91;;;30.98
28305;BMP280;15569;42.652;23.040;2023-07-08T14:16:29;93313.03;;;30.71
28305;BMP280;15569;42.652;23.040;2023-07-08T14:18:56;93313.19;;;30.92
28305;BMP280;15569;42.652;23.040;2023-07-08T14:21:22;93320.06;;;30.97
28305;BMP280;15569;42.652;23.040;2023-07-08T14:23:48;93313.91;;;31.41
28305;BMP280;15569;42.652;23.040;2023-07-08T14:26:13;93317.66;;;31.07
28305;BMP280;15569;42.652;23.040;2023-07-08T14:28:39;93327.63;;;31.02
28305;BMP280;15569;42.652;23.040;2023-07-08T14:31:09;93316.94;;;31.33
28305;BMP280;15569;42.652;23.040;2023-07-08T14:33:35;93314.59;;;31.17
28305;BMP280;15569;42.652;23.040;2023-07-08T14:36:01;93321.94;;;31.06
28305;BMP280;15569;42.652;23.040;2023-07-08T14:38:26;93321.00;;;30.63
28305;BMP280;15569;42.652;23.040;2023-07-08T14:40:52;93327.22;;;30.92
28305;BMP280;15569;42.652;23.040;2023-07-08T14:43:24;93311.25;;;31.11
28305;BMP280;15569;42.652;23.040;2023-07-08T14:45:54;93314.91;;;31.05
28305;BMP280;15569;42.652;23.040;2023-07-08T14:48:20;93319.59;;;31.13
28305;BMP280;15569;42.652;23.040;2023-07-08T14:50:46;93320.78;;;30.97
28305;BMP280;15569;42.652;23.040;2023-07-08T14:53:16;93317.91;;;31.24
28305;BMP280;15569;42.652;23.040;2023-07-08T14:55:43;93319.84;;;31.54
28305;BMP280;15569;42.652;23.040;2023-07-08T14:58:10;93322.38;;;31.15
28305;BMP280;15569;42.652;23.040;2023-07-08T15:00:43;93327.31;;;31.14
28305;BMP280;15569;42.652;23.040;2023-07-08T15:03:08;93320.94;;;31.40
28305;BMP280;15569;42.652;23.040;2023-07-08T15:05:35;93326.97;;;31.51
28305;BMP280;15569;42.652;23.040;2023-07-08T15:08:00;93326.69;;;31.12